Time;durP1;ratioP1;P1;durP2;ratioP2;P2;SDS_P1;SDS_P2;PMS_P1;PMS_P2;Temp;Humidity;BMP_temperature;BMP_pressure;BME280_temperature;BME280_humidity;BME280_pressure;Samples;Min_cycle;Max_cycle;Signal;HPM_P1;HPM_P2
2021/12/05 00:19:39;;;;;;;33.92;16.00;;;;;;;3.90;100.00;62404.88;5082558;28;20224;-78
2021/12/05 00:22:12;;;;;;;38.67;19.60;;;;;;;4.04;100.00;62411.72;5082923;28;20251;-76
2021/12/05 00:24:43;;;;;;;53.80;22.65;;;;;;;3.94;100.00;62404.47;5082188;28;20465;-77
2021/12/05 00:27:16;;;;;;;37.15;21.08;;;;;;;4.00;100.00;62410.66;5083713;28;20201;-76
2021/12/05 00:29:55;;;;;;;44.15;21.85;;;;;;;4.00;100.00;62412.66;5082686;28;20200;-76
2021/12/05 00:32:29;;;;;;;35.20;18.58;;;;;;;3.81;100.00;62393.09;5082944;28;20212;-76
2021/12/05 00:41:08;;;;;;;37.75;17.60;;;;;;;3.83;100.00;62387.59;5083057;28;20242;-75
2021/12/05 00:46:39;;;;;;;31.33;16.73;;;;;;;3.86;100.00;62398.25;5086007;28;20469;-76
2021/12/05 00:49:31;;;;;;;42.42;20.40;;;;;;;3.89;100.00;62398.81;5073387;28;20233;-75
2021/12/05 00:58:26;;;;;;;42.25;20.98;;;;;;;3.97;100.00;62412.09;5061772;28;20249;-75
2021/12/05 01:04:17;;;;;;;40.83;20.15;;;;;;;3.98;100.00;62410.59;5024632;28;20226;-76
2021/12/05 01:09:38;;;;;;;54.63;24.83;;;;;;;4.02;100.00;62414.69;5099172;28;20531;-76
2021/12/05 01:12:34;;;;;;;48.60;21.15;;;;;;;4.07;100.00;62419.84;5091926;28;20216;-76
2021/12/05 01:15:11;;;;;;;38.42;19.23;;;;;;;3.97;100.00;62409.56;5087844;28;20207;-77
2021/12/05 01:17:44;;;;;;;41.03;19.67;;;;;;;3.86;100.00;62390.69;5086177;28;20228;-77
2021/12/05 01:20:15;;;;;;;40.63;21.38;;;;;;;3.79;100.00;62386.00;5085733;28;20433;-77
2021/12/05 01:22:48;;;;;;;31.20;16.38;;;;;;;3.75;100.00;62387.44;5084921;28;20258;-76
2021/12/05 01:25:27;;;;;;;39.58;17.98;;;;;;;3.69;100.00;62378.75;5085766;28;20232;-76
2021/12/05 01:28:02;;;;;;;34.33;16.63;;;;;;;3.65;100.00;62374.63;5085516;28;20247;-77
2021/12/05 01:30:38;;;;;;;45.78;20.83;;;;;;;3.61;100.00;62370.03;5084758;28;20272;-77
2021/12/05 01:33:11;;;;;;;40.13;19.80;;;;;;;3.56;100.00;62362.84;5085500;28;20228;-78
2021/12/05 01:38:41;;;;;;;37.05;19.60;;;;;;;3.44;100.00;62350.53;5080185;28;20224;-76
2021/12/05 01:41:39;;;;;;;38.05;19.05;;;;;;;3.44;100.00;62355.56;5073033;28;20366;-75
2021/12/05 02:15:08;;;;;;;39.38;18.65;;;;;;;3.27;100.00;62335.56;5084851;28;20203;-76
2021/12/05 02:29:43;;;;;;;39.58;20.50;;;;;;;3.22;100.00;62332.94;5084092;28;20223;-76
2021/12/05 02:35:14;;;;;;;45.17;21.23;;;;;;;3.26;100.00;62334.53;5047873;28;20278;-75
2021/12/05 02:38:07;;;;;;;47.88;21.35;;;;;;;3.22;100.00;62330.44;5081827;28;20220;-75
2021/12/05 02:40:47;;;;;;;39.97;20.55;;;;;;;3.25;100.00;62331.00;5084026;28;20276;-75
2021/12/05 02:43:19;;;;;;;40.47;20.30;;;;;;;3.23;100.00;62334.47;5086892;28;20266;-75
2021/12/05 02:45:47;;;;;;;43.35;20.75;;;;;;;3.27;100.00;62333.56;5076311;28;20259;-76
2021/12/05 02:48:15;;;;;;;41.90;20.02;;;;;;;3.36;100.00;62344.81;5096794;28;20236;-76
2021/12/05 02:50:44;;;;;;;42.78;20.13;;;;;;;3.45;100.00;62354.56;5083407;28;20235;-76
2021/12/05 02:53:18;;;;;;;51.42;21.15;;;;;;;3.59;100.00;62370.97;5081396;28;20224;-76
2021/12/05 02:55:46;;;;;;;49.50;20.52;;;;;;;3.53;100.00;62362.81;5083749;28;20200;-77
2021/12/05 02:58:25;;;;;;;36.60;19.50;;;;;;;3.49;100.00;62358.69;5082836;28;20228;-76
2021/12/05 03:01:08;;;;;;;38.35;20.20;;;;;;;3.53;100.00;62360.31;5094333;28;20215;-76
2021/12/05 03:03:35;;;;;;;44.17;19.95;;;;;;;3.48;100.00;62357.16;5076431;28;20409;-76
2021/12/05 03:06:10;;;;;;;46.15;19.85;;;;;;;3.55;100.00;62361.84;5076500;28;20232;-75
2021/12/05 03:08:39;;;;;;;39.08;19.02;;;;;;;3.58;100.00;62364.41;5088992;28;20215;-76
2021/12/05 03:11:06;;;;;;;41.20;18.98;;;;;;;3.32;100.00;62345.72;5090292;28;20508;-76
2021/12/05 03:13:35;;;;;;;42.78;20.30;;;;;;;3.35;100.00;62344.31;5078949;28;20224;-75
2021/12/05 03:16:02;;;;;;;38.90;20.15;;;;;;;3.40;100.00;62346.91;5082323;28;20216;-75
2021/12/05 03:18:29;;;;;;;43.15;20.35;;;;;;;3.47;100.00;62356.13;5083217;28;20528;-76
2021/12/05 03:20:58;;;;;;;38.95;18.13;;;;;;;3.43;100.00;62355.03;5083810;28;20208;-76
2021/12/05 03:23:25;;;;;;;42.20;19.52;;;;;;;3.54;100.00;62363.31;5092562;28;20224;-76
2021/12/05 03:25:53;;;;;;;41.90;19.92;;;;;;;3.68;100.00;62379.72;5082322;28;20231;-76
2021/12/05 03:28:20;;;;;;;39.80;21.10;;;;;;;3.72;100.00;62381.84;5093510;28;20220;-75
2021/12/05 03:30:47;;;;;;;47.17;20.17;;;;;;;3.72;100.00;62386.88;5082688;28;20445;-77
2021/12/05 03:33:14;;;;;;;37.65;19.20;;;;;;;3.69;100.00;62375.72;5083288;28;20236;-77
2021/12/05 03:35:41;;;;;;;35.10;17.35;;;;;;;3.78;100.00;62385.47;5083393;28;20231;-75
2021/12/05 03:38:10;;;;;;;42.42;19.98;;;;;;;3.92;100.00;62402.41;5080440;28;20231;-75
2021/12/05 03:40:38;;;;;;;36.78;18.08;;;;;;;3.89;100.00;62401.84;5083225;28;20246;-76
2021/12/05 03:43:09;;;;;;;38.97;19.13;;;;;;;3.73;100.00;62380.34;5083324;28;20266;-76
2021/12/05 03:45:38;;;;;;;31.73;16.00;;;;;;;3.76;100.00;62385.44;5082577;28;20236;-75
2021/12/05 03:48:06;;;;;;;32.83;17.40;;;;;;;3.80;100.00;62387.03;5079492;28;20232;-76
2021/12/05 03:50:35;;;;;;;32.38;17.05;;;;;;;3.85;100.00;62397.22;5083193;28;20212;-75
2021/12/05 03:53:02;;;;;;;34.63;17.80;;;;;;;3.82;100.00;62394.13;5083415;28;20522;-75
2021/12/05 03:55:30;;;;;;;37.05;17.08;;;;;;;3.95;100.00;62407.50;5082439;28;20473;-76
2021/12/05 03:57:56;;;;;;;36.88;17.42;;;;;;;4.01;100.00;62409.16;5080128;28;20243;-77
2021/12/05 04:00:28;;;;;;;31.30;14.60;;;;;;;4.12;100.00;62420.47;5083375;28;20204;-76
2021/12/05 04:02:57;;;;;;;31.90;17.48;;;;;;;4.04;100.00;62412.22;5083026;28;20545;-76
2021/12/05 04:05:26;;;;;;;29.98;15.45;;;;;;;4.00;100.00;62410.13;5081064;28;20221;-75
2021/12/05 04:07:53;;;;;;;35.05;17.30;;;;;;;4.10;100.00;62420.94;5066865;28;20235;-77
2021/12/05 04:10:21;;;;;;;32.10;16.48;;;;;;;4.21;100.00;62431.72;5081267;28;20201;-76
2021/12/05 04:12:49;;;;;;;47.72;22.75;;;;;;;4.21;100.00;62432.22;5082637;28;20545;-77
2021/12/05 04:15:16;;;;;;;37.65;20.13;;;;;;;4.20;100.00;62428.69;5083013;28;20258;-76
2021/12/05 04:17:45;;;;;;;32.03;17.65;;;;;;;4.21;100.00;62434.75;5075516;28;20240;-77
2021/12/05 04:20:14;;;;;;;27.45;15.43;;;;;;;3.90;100.00;62397.81;5099106;28;20217;-77
2021/12/05 04:22:41;;;;;;;22.02;13.57;;;;;;;3.83;100.00;62398.19;5085245;28;20266;-75
2021/12/05 04:25:10;;;;;;;28.27;13.88;;;;;;;3.55;100.00;62362.34;5086384;28;20502;-76
2021/12/05 04:27:37;;;;;;;30.02;14.13;;;;;;;3.52;100.00;62358.75;5080381;28;20220;-76
2021/12/05 04:30:06;;;;;;;25.70;13.85;;;;;;;3.57;100.00;62370.94;5086654;28;20245;-76
2021/12/05 04:32:33;;;;;;;34.22;17.23;;;;;;;3.71;100.00;62377.78;5085022;28;20220;-76
2021/12/05 04:35:01;;;;;;;28.08;15.60;;;;;;;3.82;100.00;62394.13;5086421;28;20205;-75
2021/12/05 04:37:28;;;;;;;34.90;17.38;;;;;;;3.77;100.00;62384.47;5086103;28;20258;-75
2021/12/05 04:39:55;;;;;;;41.95;17.73;;;;;;;3.76;100.00;62385.97;5085747;28;20200;-75
2021/12/05 04:42:22;;;;;;;32.33;17.58;;;;;;;3.83;100.00;62395.16;5084653;28;20310;-76
2021/12/05 04:44:48;;;;;;;27.00;13.70;;;;;;;3.67;100.00;62371.66;5085985;28;20205;-76
2021/12/05 04:47:15;;;;;;;25.95;14.05;;;;;;;3.81;100.00;62383.03;5091390;28;20499;-77
2021/12/05 04:49:42;;;;;;;24.13;12.32;;;;;;;3.62;100.00;62371.56;5092001;28;20223;-76
2021/12/05 04:52:13;;;;;;;23.67;12.50;;;;;;;3.62;100.00;62369.03;5085612;28;20207;-75
2021/12/05 04:54:40;;;;;;;31.17;15.85;;;;;;;3.64;100.00;62376.13;5086304;28;20254;-76
2021/12/05 04:57:07;;;;;;;25.67;13.60;;;;;;;3.48;100.00;62354.63;5086365;28;20227;-76
2021/12/05 04:59:36;;;;;;;24.77;13.23;;;;;;;3.48;100.00;62355.16;5080485;28;20204;-77
2021/12/05 05:02:07;;;;;;;29.63;15.57;;;;;;;3.40;100.00;62346.41;5086435;28;20242;-76
2021/12/05 05:04:41;;;;;;;30.30;16.63;;;;;;;3.42;100.00;62343.94;5086274;28;20209;-75
2021/12/05 05:07:17;;;;;;;26.15;14.93;;;;;;;3.46;100.00;62355.63;5085503;28;20302;-76
2021/12/05 05:09:46;;;;;;;29.50;15.65;;;;;;;3.41;100.00;62352.47;5083685;28;20390;-76
2021/12/05 05:12:13;;;;;;;27.00;12.75;;;;;;;3.37;100.00;62346.34;5085929;28;20564;-76
2021/12/05 05:14:40;;;;;;;31.25;15.05;;;;;;;3.35;100.00;62346.28;5085956;28;20250;-76
2021/12/05 05:17:07;;;;;;;23.95;13.38;;;;;;;3.38;100.00;62349.91;5083358;28;20442;-77
2021/12/05 05:19:38;;;;;;;28.90;13.88;;;;;;;3.38;100.00;62349.91;5084075;28;20247;-76
2021/12/05 05:22:09;;;;;;;29.20;15.13;;;;;;;3.34;100.00;62345.28;5087127;28;20208;-76
2021/12/05 05:25:12;;;;;;;36.92;19.05;;;;;;;3.37;100.00;62346.34;5085823;28;20450;-76
2021/12/05 05:30:55;;;;;;;37.65;16.95;;;;;;;3.38;100.00;62349.91;5085828;28;20201;-76
2021/12/05 05:39:35;;;;;;;28.40;14.43;;;;;;;3.42;100.00;62350.97;5085754;28;20266;-77
2021/12/05 05:47:50;;;;;;;30.80;16.02;;;;;;;3.43;100.00;62352.53;5054597;28;20595;-76
2021/12/05 05:50:19;;;;;;;31.13;16.77;;;;;;;3.37;100.00;62345.84;5086065;28;20201;-77
2021/12/05 05:52:47;;;;;;;31.42;15.32;;;;;;;3.42;100.00;62359.03;5082622;28;20220;-76
2021/12/05 05:55:14;;;;;;;26.77;14.57;;;;;;;3.54;100.00;62363.31;5084671;28;20539;-77
2021/12/05 05:57:47;;;;;;;36.80;16.35;;;;;;;3.43;100.00;62350.00;5084380;28;20553;-77
2021/12/05 06:00:28;;;;;;;38.15;17.92;;;;;;;3.40;100.00;62346.41;5085167;28;20228;-76
2021/12/05 06:05:36;;;;;;;40.88;19.17;;;;;;;3.52;100.00;62359.25;5063966;28;20430;-76
2021/12/05 06:08:03;;;;;;;39.30;18.77;;;;;;;3.56;100.00;62365.38;5088925;28;20220;-78
2021/12/05 06:10:31;;;;;;;68.10;18.58;;;;;;;3.18;100.00;62328.81;5086307;28;20371;-75
2021/12/05 06:13:01;;;;;;;188.27;22.38;;;;;;;3.02;100.00;62310.38;5091570;28;20255;-76
2021/12/05 06:15:29;;;;;;;129.65;22.20;;;;;;;3.10;100.00;62318.09;5099935;28;20267;-76
2021/12/05 06:17:56;;;;;;;181.63;24.23;;;;;;;2.93;100.00;62296.13;5084746;28;20569;-78
2021/12/05 06:20:26;;;;;;;169.70;24.67;;;;;;;2.88;100.00;62293.47;5078731;28;20213;-77
2021/12/05 06:22:54;;;;;;;81.15;20.08;;;;;;;2.96;100.00;62306.72;5083119;28;20220;-76
2021/12/05 06:25:24;;;;;;;57.20;19.35;;;;;;;3.07;100.00;62318.03;5085422;28;20450;-76
2021/12/05 06:27:52;;;;;;;49.80;21.83;;;;;;;3.17;100.00;62323.28;5083972;28;20232;-77
2021/12/05 06:30:31;;;;;;;38.60;18.80;;;;;;;3.18;100.00;62323.78;5083374;28;20543;-76
2021/12/05 06:38:52;;;;;;;42.97;19.77;;;;;;;3.22;100.00;62330.94;5083335;28;20274;-76
2021/12/05 06:41:23;;;;;;;35.03;19.83;;;;;;;3.35;100.00;62343.78;5084056;28;20256;-76
2021/12/05 06:46:37;;;;;;;42.40;20.75;;;;;;;3.31;100.00;62337.16;5092643;28;20234;-77
2021/12/05 06:49:05;;;;;;;44.80;23.05;;;;;;;3.37;100.00;62345.84;5070735;28;20294;-76
2021/12/05 06:51:32;;;;;;;58.63;24.83;;;;;;;3.38;100.00;62347.38;5083745;28;20208;-75
2021/12/05 06:53:59;;;;;;;54.60;24.70;;;;;;;3.53;100.00;62362.28;5083778;28;20228;-76
2021/12/05 06:56:27;;;;;;;64.57;25.10;;;;;;;3.75;100.00;62384.41;5082780;28;20218;-76
2021/12/05 06:58:55;;;;;;;78.68;26.02;;;;;;;3.84;100.00;62391.66;5083747;28;20466;-76
2021/12/05 07:01:23;;;;;;;121.93;26.25;;;;;;;3.74;100.00;62385.91;5075838;28;20202;-76
2021/12/05 07:03:51;;;;;;;60.10;25.48;;;;;;;3.79;100.00;62388.53;5082437;28;20224;-77
2021/12/05 07:06:22;;;;;;;321.60;34.05;;;;;;;3.96;100.00;62406.00;5083673;28;20236;-76
2021/12/05 07:08:52;;;;;;;100.68;25.27;;;;;;;3.98;100.00;62410.59;5088966;28;20621;-77
2021/12/05 07:11:23;;;;;;;66.47;24.02;;;;;;;4.16;100.00;62429.09;5081276;28;20196;-75
2021/12/05 07:16:45;;;;;;;458.92;43.55;;;;;;;3.85;100.00;62392.19;5069374;28;20861;-76
2021/12/05 07:19:29;;;;;;;322.80;33.83;;;;;;;4.03;100.00;62416.25;5078729;28;20234;-75
2021/12/05 07:21:58;;;;;;;207.52;29.20;;;;;;;3.82;100.00;62394.13;5077776;28;20208;-75
2021/12/05 07:24:40;;;;;;;245.30;28.65;;;;;;;4.06;100.00;62416.81;5083028;28;20295;-76
2021/12/05 07:41:19;;;;;;;50.80;23.42;;;;;;;4.72;100.00;62482.22;5082959;28;20207;-76
2021/12/05 07:43:46;;;;;;;60.55;24.77;;;;;;;4.87;100.00;62499.66;5080885;28;20598;-74
2021/12/05 07:46:13;;;;;;;53.63;25.83;;;;;;;5.06;100.00;62518.69;5081300;28;20200;-76
2021/12/05 07:48:43;;;;;;;51.15;24.23;;;;;;;5.26;100.00;62536.78;5082546;28;20212;-76
2021/12/05 07:51:21;;;;;;;44.78;23.35;;;;;;;5.33;100.00;62549.53;5085595;28;20200;-77
2021/12/05 07:53:56;;;;;;;46.15;23.63;;;;;;;5.42;100.00;62556.28;5084010;28;20287;-76
2021/12/05 07:56:34;;;;;;;76.50;39.05;;;;;;;5.65;100.00;62579.47;5083191;28;20276;-76
2021/12/05 07:59:13;;;;;;;47.60;24.27;;;;;;;5.87;100.00;62602.16;5098395;28;20601;-75
2021/12/05 08:15:26;;;;;;;33.42;18.98;;;;;;;5.82;100.00;62599.53;5081991;28;20236;-77
2021/12/05 08:17:57;;;;;;;35.08;18.40;;;;;;;5.68;100.00;62580.03;5079115;28;20464;-77
2021/12/05 08:20:27;;;;;;;36.53;18.05;;;;;;;5.94;100.00;62606.34;5086522;28;20521;-77
2021/12/05 08:22:56;;;;;;;31.05;17.17;;;;;;;5.83;100.00;62598.56;5084570;28;20227;-76
2021/12/05 08:25:26;;;;;;;29.38;14.40;;;;;;;5.87;100.00;62599.63;5083985;28;20436;-77
2021/12/05 08:28:01;;;;;;;34.33;16.98;;;;;;;5.65;100.00;62579.47;5085753;28;20236;-77
2021/12/05 08:30:33;;;;;;;33.25;17.52;;;;;;;5.47;100.00;62558.41;5082200;28;20199;-77
2021/12/05 08:33:19;;;;;;;27.55;15.35;;;;;;;5.40;100.00;62553.72;5082591;28;20530;-77
2021/12/05 08:45:02;;;;;;;26.38;13.65;;;;;;;5.41;100.00;62559.81;5071937;28;20220;-77
2021/12/05 09:51:15;;;;;;;16.20;8.43;;;;;;;8.34;100.00;62858.53;5066119;28;20235;-77
2021/12/05 10:02:35;;;;;;;20.45;11.70;;;;;;;8.73;100.00;62895.78;5066198;28;20204;-77
2021/12/05 10:10:51;;;;;;;14.73;8.45;;;;;;;9.15;97.88;62939.16;5050759;28;20204;-76
2021/12/05 10:13:25;;;;;;;11.52;8.07;;;;;;;9.24;98.00;62946.47;5060750;28;20254;-76
2021/12/05 10:16:15;;;;;;;10.25;7.25;;;;;;;9.49;97.63;62974.31;5056522;28;20217;-77
2021/12/05 10:19:09;;;;;;;9.88;7.63;;;;;;;8.97;96.70;62918.53;5065425;28;20423;-77
2021/12/05 10:36:00;;;;;;;10.35;7.50;;;;;;;8.98;98.43;62926.69;5036356;28;20269;-77
2021/12/05 10:38:34;;;;;;;7.53;6.03;;;;;;;9.07;97.18;62936.50;5043494;28;20249;-77
2021/12/05 10:41:19;;;;;;;10.55;7.05;;;;;;;9.05;95.40;62926.28;5043491;28;20220;-77
2021/12/05 10:43:49;;;;;;;10.95;6.35;;;;;;;8.28;98.35;62849.81;5041174;28;20218;-77
2021/12/05 10:46:18;;;;;;;25.65;18.08;;;;;;;8.43;99.44;62867.31;5047824;28;20569;-77
2021/12/05 10:48:49;;;;;;;9.43;6.68;;;;;;;8.60;98.51;62885.38;5044775;28;20229;-77
2021/12/05 10:51:19;;;;;;;11.55;6.85;;;;;;;8.61;97.14;62885.91;5062660;28;20201;-77
2021/12/05 10:53:48;;;;;;;9.30;7.05;;;;;;;8.48;97.78;62869.94;5059904;28;20430;-76
2021/12/05 10:56:19;;;;;;;11.15;7.50;;;;;;;8.56;98.97;62878.22;5076702;28;20211;-77
2021/12/05 10:58:50;;;;;;;9.05;7.55;;;;;;;8.68;100.00;62888.56;5066021;28;20260;-78
2021/12/05 11:01:28;;;;;;;13.38;8.88;;;;;;;8.81;100.00;62904.03;5060919;28;20231;-77
2021/12/05 11:03:58;;;;;;;13.00;8.90;;;;;;;8.84;99.43;62910.19;5052228;28;20225;-77
2021/12/05 11:06:33;;;;;;;16.70;9.00;;;;;;;8.46;99.29;62867.88;5065527;28;20278;-77
2021/12/05 11:09:03;;;;;;;12.60;8.18;;;;;;;7.97;100.00;62818.28;5066682;28;20220;-77
2021/12/05 11:11:31;;;;;;;11.52;8.25;;;;;;;7.87;100.00;62807.94;5062951;28;20234;-77
2021/12/05 11:14:01;;;;;;;11.93;7.95;;;;;;;8.10;100.00;62834.25;5069255;28;20259;-76
2021/12/05 11:16:36;;;;;;;15.93;8.32;;;;;;;8.21;100.00;62843.06;5069136;28;20194;-76
2021/12/05 11:19:09;;;;;;;14.50;9.18;;;;;;;8.14;100.00;62835.31;5069381;28;20235;-78
2021/12/05 11:21:46;;;;;;;16.33;9.05;;;;;;;8.31;100.00;62852.91;5060063;28;20197;-77
2021/12/05 11:24:20;;;;;;;13.68;8.65;;;;;;;8.43;100.00;62865.28;5078183;28;20474;-77
2021/12/05 11:27:14;;;;;;;15.68;9.27;;;;;;;8.28;100.00;62851.81;5064834;28;20204;-76
2021/12/05 11:29:54;;;;;;;28.35;11.60;;;;;;;8.53;100.00;62878.16;5064835;28;20201;-76
2021/12/05 11:32:30;;;;;;;19.23;8.68;;;;;;;8.65;100.00;62893.09;5052853;28;20201;-77
2021/12/05 11:34:57;;;;;;;16.00;8.48;;;;;;;8.70;100.00;62895.72;5064110;28;20223;-77
2021/12/05 11:37:25;;;;;;;12.32;9.00;;;;;;;8.60;99.52;62882.31;5063812;28;20232;-77
2021/12/05 11:40:03;;;;;;;15.38;8.65;;;;;;;8.65;99.15;62888.00;5060727;28;20243;-77
2021/12/05 11:42:30;;;;;;;14.68;8.57;;;;;;;8.52;99.08;62874.59;5053795;28;20541;-77
2021/12/05 11:45:05;;;;;;;14.40;8.90;;;;;;;8.48;99.21;62875.00;5059482;28;20228;-76
2021/12/05 11:47:37;;;;;;;11.90;8.50;;;;;;;8.53;99.50;62872.56;5062649;28;20229;-76
2021/12/05 11:50:06;;;;;;;17.50;10.07;;;;;;;8.56;99.31;62878.72;5060660;28;20209;-77
2021/12/05 11:52:39;;;;;;;14.88;9.20;;;;;;;8.70;100.00;62895.72;5074155;28;20293;-76
2021/12/05 11:55:07;;;;;;;11.98;8.52;;;;;;;8.59;98.25;62881.31;5062948;28;20193;-76
2021/12/05 11:57:36;;;;;;;12.95;8.48;;;;;;;8.70;99.21;62893.19;5075377;28;20236;-77
2021/12/05 12:00:09;;;;;;;16.02;9.35;;;;;;;8.74;98.75;62897.31;5063032;28;20252;-75
2021/12/05 12:02:40;;;;;;;16.67;9.45;;;;;;;8.80;99.62;62905.53;5060235;28;20221;-76
2021/12/05 12:05:11;;;;;;;15.68;9.55;;;;;;;8.94;99.28;62914.91;5062207;28;20197;-76
2021/12/05 12:07:43;;;;;;;13.63;8.05;;;;;;;8.95;98.42;62919.03;5062817;28;20253;-76
2021/12/05 12:10:14;;;;;;;19.42;9.98;;;;;;;8.73;97.66;62896.28;5063272;28;20460;-76
2021/12/05 12:12:42;;;;;;;17.27;10.30;;;;;;;8.65;97.63;62888.00;5062339;28;20266;-76
2021/12/05 12:15:10;;;;;;;14.90;9.85;;;;;;;8.64;99.41;62887.00;5066647;28;20201;-77
2021/12/05 12:17:37;;;;;;;19.48;9.57;;;;;;;8.75;98.73;62897.84;5063026;28;20233;-76
2021/12/05 12:20:09;;;;;;;16.23;10.05;;;;;;;8.88;99.37;62911.78;5060976;28;20264;-75
2021/12/05 12:22:36;;;;;;;14.40;9.15;;;;;;;9.01;99.20;62927.22;5059128;28;20441;-78
2021/12/05 12:25:09;;;;;;;15.88;8.98;;;;;;;8.93;96.77;62913.88;5057579;28;20205;-77
2021/12/05 12:27:37;;;;;;;13.68;8.93;;;;;;;8.55;98.67;62875.16;5051305;28;20233;-77
2021/12/05 12:30:08;;;;;;;13.13;8.60;;;;;;;8.63;100.00;62890.53;5063267;28;20205;-77
2021/12/05 12:32:40;;;;;;;16.48;8.73;;;;;;;8.83;99.26;62906.63;5058482;28;20221;-77
2021/12/05 12:35:09;;;;;;;13.82;8.52;;;;;;;9.01;98.18;62925.22;5057918;28;20252;-76
2021/12/05 12:37:55;;;;;;;14.00;9.18;;;;;;;9.14;96.97;62935.59;5060817;28;20229;-76
2021/12/05 12:40:44;;;;;;;14.10;9.30;;;;;;;9.09;96.42;62932.97;5063377;28;20204;-76
2021/12/05 12:43:51;;;;;;;15.07;8.60;;;;;;;8.98;95.03;62926.69;5049420;28;20261;-77
2021/12/05 12:46:33;;;;;;;15.95;8.63;;;;;;;8.84;96.42;62910.19;5063157;28;20208;-77
2021/12/05 12:49:22;;;;;;;14.23;8.73;;;;;;;8.97;97.06;62923.63;5062955;28;20225;-76
2021/12/05 12:51:52;;;;;;;18.77;9.60;;;;;;;8.88;96.93;62911.25;5061792;28;20213;-77
2021/12/05 12:54:26;;;;;;;16.40;9.07;;;;;;;8.88;97.91;62916.34;5062392;28;20232;-79
2021/12/05 12:57:11;;;;;;;16.58;9.43;;;;;;;9.06;98.46;62929.88;5063539;28;20200;-78
2021/12/05 12:59:43;;;;;;;13.63;9.40;;;;;;;9.11;97.50;62935.03;5062773;28;20216;-77
2021/12/05 13:02:30;;;;;;;14.50;8.52;;;;;;;9.11;97.32;62935.53;5054463;28;20201;-78
2021/12/05 13:05:20;;;;;;;16.25;9.27;;;;;;;8.96;98.04;62922.59;5072412;28;20197;-77
2021/12/05 13:10:36;;;;;;;18.83;9.60;;;;;;;9.08;96.61;62931.94;5062834;28;20569;-78
2021/12/05 13:13:09;;;;;;;13.93;9.93;;;;;;;9.04;97.71;62928.31;5062835;28;20225;-77
2021/12/05 13:15:48;;;;;;;14.55;9.45;;;;;;;9.06;98.30;62932.91;5063732;28;20256;-78
2021/12/05 13:18:26;;;;;;;18.17;8.70;;;;;;;9.07;97.75;62935.97;5069124;28;20229;-77
2021/12/05 13:20:57;;;;;;;16.40;9.38;;;;;;;8.96;98.53;62919.53;5061714;28;20197;-76
2021/12/05 13:23:32;;;;;;;15.35;9.15;;;;;;;8.98;99.29;62919.06;5064079;28;20328;-77
2021/12/05 13:26:15;;;;;;;14.63;9.25;;;;;;;8.95;99.02;62916.47;5066607;28;20207;-76
2021/12/05 13:28:44;;;;;;;14.07;9.77;;;;;;;8.80;99.73;62905.53;5065252;28;20260;-77
2021/12/05 13:31:39;;;;;;;13.73;9.68;;;;;;;8.80;100.00;62903.00;5059654;28;20209;-78
2021/12/05 13:34:42;;;;;;;13.50;9.07;;;;;;;8.56;100.00;62880.75;5068089;28;20264;-76
2021/12/05 13:37:38;;;;;;;13.00;8.63;;;;;;;8.33;100.00;62860.03;5065764;28;20259;-77
2021/12/05 13:40:29;;;;;;;11.57;7.93;;;;;;;8.19;100.00;62843.53;5021497;28;20221;-77
2021/12/05 13:43:01;;;;;;;16.17;8.15;;;;;;;7.90;100.00;62816.09;5076248;28;20227;-77
2021/12/05 13:45:42;;;;;;;20.92;8.82;;;;;;;7.75;100.00;62793.03;5066513;28;20198;-77
2021/12/05 13:48:17;;;;;;;16.45;9.27;;;;;;;7.65;100.00;62784.72;5061740;28;20225;-77
2021/12/05 13:50:48;;;;;;;20.17;9.85;;;;;;;7.67;100.00;62786.78;5059091;28;20260;-77
2021/12/05 13:53:28;;;;;;;15.73;9.13;;;;;;;7.49;100.00;62765.69;5067970;28;20441;-77
2021/12/05 13:56:06;;;;;;;13.90;8.98;;;;;;;7.30;100.00;62751.66;5062768;28;20204;-79
2021/12/05 13:58:45;;;;;;;19.52;9.50;;;;;;;7.27;100.00;62742.97;5069383;28;20229;-78
2021/12/05 14:01:18;;;;;;;16.73;10.07;;;;;;;7.16;100.00;62737.22;5059217;28;20200;-78
2021/12/05 14:04:06;;;;;;;13.05;8.82;;;;;;;7.06;100.00;62723.84;5066700;28;20293;-77
2021/12/05 14:06:54;;;;;;;10.52;8.10;;;;;;;6.97;100.00;62715.06;5056454;28;20219;-77
2021/12/05 14:09:37;;;;;;;15.27;9.65;;;;;;;6.91;100.00;62711.41;5065621;28;20550;-77
2021/12/05 14:12:09;;;;;;;28.13;16.10;;;;;;;6.82;100.00;62705.19;5065310;28;20292;-77
2021/12/05 14:14:40;;;;;;;61.03;32.60;;;;;;;6.76;100.00;62695.94;5069175;28;20266;-78
2021/12/05 14:17:09;;;;;;;18.77;11.70;;;;;;;6.41;100.00;62657.31;5064398;28;20202;-77
2021/12/05 14:19:40;;;;;;;16.48;11.50;;;;;;;6.43;100.00;62659.91;5065658;28;20229;-79
2021/12/05 14:22:10;;;;;;;21.75;10.82;;;;;;;6.38;100.00;62657.28;5066413;28;20201;-77
2021/12/05 14:24:40;;;;;;;24.88;9.93;;;;;;;6.40;100.00;62656.28;5066434;28;20575;-78
2021/12/05 14:27:09;;;;;;;14.40;10.25;;;;;;;6.29;100.00;62645.47;5068336;28;20414;-78
2021/12/05 14:29:40;;;;;;;20.30;9.38;;;;;;;6.23;100.00;62641.28;5075644;28;20224;-77
2021/12/05 14:32:09;;;;;;;21.42;11.82;;;;;;;6.17;100.00;62632.56;5067450;28;20216;-78
2021/12/05 14:34:38;;;;;;;18.50;13.13;;;;;;;6.12;100.00;62627.94;5063213;28;20209;-79
2021/12/05 14:37:10;;;;;;;26.42;14.15;;;;;;;6.08;100.00;62625.81;5064240;28;20216;-77
2021/12/05 14:39:39;;;;;;;19.17;10.25;;;;;;;6.06;100.00;62616.19;5062549;28;20521;-78
2021/12/05 14:42:08;;;;;;;18.65;10.30;;;;;;;5.96;100.00;62613.44;5064237;28;20239;-77
2021/12/05 14:44:37;;;;;;;17.38;9.93;;;;;;;5.95;100.00;62607.38;5064163;28;20205;-77
2021/12/05 14:47:07;;;;;;;16.33;9.50;;;;;;;5.80;100.00;62597.97;5063477;28;20198;-77
2021/12/05 14:49:38;;;;;;;18.50;8.57;;;;;;;5.74;100.00;62588.75;5064146;28;20268;-77
2021/12/05 14:52:09;;;;;;;12.68;7.45;;;;;;;5.74;100.00;62588.75;5065016;28;20383;-77
2021/12/05 14:54:40;;;;;;;10.25;7.85;;;;;;;5.82;100.00;62600.06;5062986;28;20201;-77
2021/12/05 14:57:10;;;;;;;12.68;9.18;;;;;;;5.74;100.00;62586.22;5064602;28;20224;-77
2021/12/05 14:59:37;;;;;;;15.77;8.95;;;;;;;5.75;100.00;62594.81;5062216;28;20267;-76
2021/12/05 15:02:05;;;;;;;23.20;10.10;;;;;;;5.67;100.00;62587.13;5062852;28;20639;-77
2021/12/05 15:04:35;;;;;;;22.60;13.63;;;;;;;5.65;100.00;62579.47;5064349;28;20434;-77
2021/12/05 15:07:04;;;;;;;36.00;19.98;;;;;;;5.68;100.00;62585.09;5063336;28;20197;-76
2021/12/05 15:09:36;;;;;;;23.90;13.90;;;;;;;5.65;100.00;62576.94;5062596;28;20254;-76
2021/12/05 15:12:08;;;;;;;20.85;11.68;;;;;;;5.57;100.00;62571.25;5062787;28;20380;-77
2021/12/05 15:14:36;;;;;;;19.75;11.45;;;;;;;5.51;100.00;62565.56;5063897;28;20405;-77
2021/12/05 15:17:07;;;;;;;21.23;11.18;;;;;;;5.40;100.00;62551.72;5062532;28;20331;-77
2021/12/05 15:19:35;;;;;;;22.50;10.48;;;;;;;5.47;100.00;62561.44;5063604;28;20216;-77
2021/12/05 15:22:06;;;;;;;15.95;8.63;;;;;;;5.46;100.00;62564.94;5063477;28;20193;-77
2021/12/05 15:24:33;;;;;;;16.83;9.63;;;;;;;5.42;100.00;62555.78;5063696;28;20197;-76
2021/12/05 15:27:03;;;;;;;26.13;12.65;;;;;;;5.42;100.00;62558.81;5061455;28;20209;-77
2021/12/05 15:29:30;;;;;;;22.00;13.05;;;;;;;5.39;100.00;62550.16;5063777;28;20497;-76
2021/12/05 15:31:59;;;;;;;41.13;25.75;;;;;;;5.43;100.00;62559.34;5064089;28;20525;-77
2021/12/05 15:34:33;;;;;;;45.35;19.02;;;;;;;5.31;100.00;62544.97;5064003;28;20232;-76
2021/12/05 15:37:09;;;;;;;38.65;18.13;;;;;;;5.30;100.00;62540.88;5062258;28;21078;-77
2021/12/05 15:39:40;;;;;;;32.55;19.05;;;;;;;5.26;100.00;62544.34;5064692;28;20278;-77
2021/12/05 15:42:17;;;;;;;39.28;19.42;;;;;;;5.32;100.00;62548.00;5064698;28;20300;-76
2021/12/05 15:44:47;;;;;;;32.92;18.20;;;;;;;5.23;100.00;62538.75;5063465;28;20211;-77
2021/12/05 15:47:18;;;;;;;36.13;20.30;;;;;;;5.28;100.00;62541.38;5050130;28;20215;-78
2021/12/05 15:49:53;;;;;;;45.88;24.13;;;;;;;5.27;100.00;62540.31;5025011;28;20249;-77
2021/12/05 15:52:26;;;;;;;48.72;26.42;;;;;;;5.24;100.00;62537.75;5024437;28;20218;-76
2021/12/05 15:54:54;;;;;;;50.58;23.92;;;;;;;5.18;100.00;62531.06;5034523;28;20202;-76
2021/12/05 15:57:31;;;;;;;28.02;16.30;;;;;;;5.14;100.00;62527.47;5016290;28;20210;-76